sensor_id;sensor_type;location;lat;lon;timestamp;temperature;humidity
13610;DHT22;6876;50.788;4.940;2023-09-30T00:02:35;12.60;99.90
13610;DHT22;6876;50.788;4.940;2023-09-30T00:05:23;12.60;99.90
13610;DHT22;6876;50.788;4.940;2023-09-30T00:08:11;12.70;99.90
13610;DHT22;6876;50.788;4.940;2023-09-30T00:10:58;12.70;99.90
13610;DHT22;6876;50.788;4.940;2023-09-30T00:13:46;12.60;99.90
13610;DHT22;6876;50.788;4.940;2023-09-30T00:16:35;12.70;99.90
13610;DHT22;6876;50.788;4.940;2023-09-30T00:19:22;12.80;99.90
13610;DHT22;6876;50.788;4.940;2023-09-30T00:22:09;12.70;99.90
13610;DHT22;6876;50.788;4.940;2023-09-30T00:24:58;12.70;99.90
13610;DHT22;6876;50.788;4.940;2023-09-30T00:27:45;12.70;99.90
13610;DHT22;6876;50.788;4.940;2023-09-30T00:30:33;12.60;99.90
13610;DHT22;6876;50.788;4.940;2023-09-30T00:33:20;12.60;99.90
13610;DHT22;6876;50.788;4.940;2023-09-30T00:36:08;12.50;99.90
13610;DHT22;6876;50.788;4.940;2023-09-30T00:38:56;12.50;99.90
13610;DHT22;6876;50.788;4.940;2023-09-30T00:41:45;12.50;99.90
13610;DHT22;6876;50.788;4.940;2023-09-30T00:44:32;12.60;99.90
13610;DHT22;6876;50.788;4.940;2023-09-30T00:47:20;12.60;99.90
13610;DHT22;6876;50.788;4.940;2023-09-30T00:50:07;12.60;99.90
13610;DHT22;6876;50.788;4.940;2023-09-30T00:52:56;12.60;99.90
13610;DHT22;6876;50.788;4.940;2023-09-30T00:55:44;12.60;99.90
13610;DHT22;6876;50.788;4.940;2023-09-30T00:58:34;12.60;99.90
13610;DHT22;6876;50.788;4.940;2023-09-30T01:01:22;12.60;99.90
13610;DHT22;6876;50.788;4.940;2023-09-30T01:04:09;12.60;99.90
13610;DHT22;6876;50.788;4.940;2023-09-30T01:06:57;12.50;99.90
13610;DHT22;6876;50.788;4.940;2023-09-30T01:09:45;12.50;99.90
13610;DHT22;6876;50.788;4.940;2023-09-30T01:12:32;12.40;99.90
13610;DHT22;6876;50.788;4.940;2023-09-30T01:15:21;12.50;99.90
13610;DHT22;6876;50.788;4.940;2023-09-30T01:18:09;12.50;99.90
13610;DHT22;6876;50.788;4.940;2023-09-30T01:20:57;12.60;99.90
13610;DHT22;6876;50.788;4.940;2023-09-30T01:23:45;12.60;99.90
13610;DHT22;6876;50.788;4.940;2023-09-30T01:26:33;12.60;99.90
13610;DHT22;6876;50.788;4.940;2023-09-30T01:29:20;12.60;99.90
13610;DHT22;6876;50.788;4.940;2023-09-30T01:32:08;12.60;99.90
13610;DHT22;6876;50.788;4.940;2023-09-30T01:34:56;12.70;99.90
13610;DHT22;6876;50.788;4.940;2023-09-30T01:37:43;12.70;99.90
13610;DHT22;6876;50.788;4.940;2023-09-30T01:40:32;12.70;99.90
13610;DHT22;6876;50.788;4.940;2023-09-30T01:43:19;12.70;99.90
13610;DHT22;6876;50.788;4.940;2023-09-30T01:46:06;12.60;99.90
13610;DHT22;6876;50.788;4.940;2023-09-30T01:48:54;12.70;99.90
13610;DHT22;6876;50.788;4.940;2023-09-30T01:51:41;12.70;99.90
13610;DHT22;6876;50.788;4.940;2023-09-30T01:54:29;12.70;99.90
13610;DHT22;6876;50.788;4.940;2023-09-30T01:57:17;12.70;99.90
13610;DHT22;6876;50.788;4.940;2023-09-30T02:00:06;12.70;99.90
13610;DHT22;6876;50.788;4.940;2023-09-30T02:02:55;12.70;99.90
13610;DHT22;6876;50.788;4.940;2023-09-30T02:05:42;12.70;99.90
13610;DHT22;6876;50.788;4.940;2023-09-30T02:08:30;12.60;99.90
13610;DHT22;6876;50.788;4.940;2023-09-30T02:11:17;12.60;99.90
13610;DHT22;6876;50.788;4.940;2023-09-30T02:14:06;12.60;99.90
13610;DHT22;6876;50.788;4.940;2023-09-30T02:16:53;12.60;99.90
13610;DHT22;6876;50.788;4.940;2023-09-30T02:19:41;12.60;99.90
13610;DHT22;6876;50.788;4.940;2023-09-30T02:22:29;12.60;99.90
13610;DHT22;6876;50.788;4.940;2023-09-30T02:25:17;12.60;99.90
13610;DHT22;6876;50.788;4.940;2023-09-30T02:28:05;12.60;99.90
13610;DHT22;6876;50.788;4.940;2023-09-30T02:30:54;12.60;99.90
13610;DHT22;6876;50.788;4.940;2023-09-30T02:33:41;12.60;99.90
13610;DHT22;6876;50.788;4.940;2023-09-30T02:36:30;12.60;99.90
13610;DHT22;6876;50.788;4.940;2023-09-30T02:39:17;12.60;99.90
13610;DHT22;6876;50.788;4.940;2023-09-30T02:42:05;12.50;99.90
13610;DHT22;6876;50.788;4.940;2023-09-30T02:44:53;12.50;99.90
13610;DHT22;6876;50.788;4.940;2023-09-30T02:47:41;12.40;99.90
13610;DHT22;6876;50.788;4.940;2023-09-30T02:50:29;12.40;99.90
13610;DHT22;6876;50.788;4.940;2023-09-30T02:53:17;12.30;99.90
13610;DHT22;6876;50.788;4.940;2023-09-30T02:56:09;12.30;99.90
13610;DHT22;6876;50.788;4.940;2023-09-30T02:58:56;12.30;99.90
13610;DHT22;6876;50.788;4.940;2023-09-30T03:01:43;12.30;99.90
13610;DHT22;6876;50.788;4.940;2023-09-30T03:04:32;12.30;99.90
13610;DHT22;6876;50.788;4.940;2023-09-30T03:07:20;12.20;99.90
13610;DHT22;6876;50.788;4.940;2023-09-30T03:10:08;12.10;99.90
13610;DHT22;6876;50.788;4.940;2023-09-30T03:12:56;12.00;99.90
13610;DHT22;6876;50.788;4.940;2023-09-30T03:15:47;11.80;99.90
13610;DHT22;6876;50.788;4.940;2023-09-30T03:18:36;11.80;99.90
13610;DHT22;6876;50.788;4.940;2023-09-30T03:21:24;11.90;99.90
13610;DHT22;6876;50.788;4.940;2023-09-30T03:24:12;12.00;99.90
13610;DHT22;6876;50.788;4.940;2023-09-30T03:26:59;12.10;99.90
13610;DHT22;6876;50.788;4.940;2023-09-30T03:29:46;12.20;99.90
13610;DHT22;6876;50.788;4.940;2023-09-30T03:32:34;12.20;99.90
13610;DHT22;6876;50.788;4.940;2023-09-30T03:35:24;12.30;99.90
13610;DHT22;6876;50.788;4.940;2023-09-30T03:38:13;12.30;99.90
13610;DHT22;6876;50.788;4.940;2023-09-30T03:41:02;12.20;99.90
13610;DHT22;6876;50.788;4.940;2023-09-30T03:43:49;12.20;99.90
13610;DHT22;6876;50.788;4.940;2023-09-30T03:46:37;12.20;99.90
13610;DHT22;6876;50.788;4.940;2023-09-30T03:49:24;12.10;99.90
13610;DHT22;6876;50.788;4.940;2023-09-30T03:52:11;12.00;99.90
13610;DHT22;6876;50.788;4.940;2023-09-30T03:55:01;12.00;99.90
13610;DHT22;6876;50.788;4.940;2023-09-30T03:57:51;12.00;99.90
13610;DHT22;6876;50.788;4.940;2023-09-30T04:00:38;12.00;99.90
13610;DHT22;6876;50.788;4.940;2023-09-30T04:03:26;11.90;99.90
13610;DHT22;6876;50.788;4.940;2023-09-30T04:06:15;11.80;99.90
13610;DHT22;6876;50.788;4.940;2023-09-30T04:09:02;11.80;99.90
13610;DHT22;6876;50.788;4.940;2023-09-30T04:11:56;11.80;99.90
13610;DHT22;6876;50.788;4.940;2023-09-30T04:14:44;11.90;99.90
13610;DHT22;6876;50.788;4.940;2023-09-30T04:17:31;11.90;99.90
13610;DHT22;6876;50.788;4.940;2023-09-30T04:20:19;11.90;99.90
13610;DHT22;6876;50.788;4.940;2023-09-30T04:23:09;11.90;99.90
13610;DHT22;6876;50.788;4.940;2023-09-30T04:25:58;11.90;99.90
13610;DHT22;6876;50.788;4.940;2023-09-30T04:28:47;11.80;99.90
13610;DHT22;6876;50.788;4.940;2023-09-30T04:31:35;11.80;99.90
13610;DHT22;6876;50.788;4.940;2023-09-30T04:34:23;11.80;99.90
13610;DHT22;6876;50.788;4.940;2023-09-30T04:37:11;11.80;99.90
13610;DHT22;6876;50.788;4.940;2023-09-30T04:39:58;11.70;99.90
13610;DHT22;6876;50.788;4.940;2023-09-30T04:42:46;11.80;99.90
13610;DHT22;6876;50.788;4.940;2023-09-30T04:45:34;11.80;99.90
13610;DHT22;6876;50.788;4.940;2023-09-30T04:48:22;11.80;99.90
13610;DHT22;6876;50.788;4.940;2023-09-30T04:51:09;11.80;99.90
13610;DHT22;6876;50.788;4.940;2023-09-30T04:53:59;11.90;99.90
13610;DHT22;6876;50.788;4.940;2023-09-30T04:56:48;11.90;99.90
13610;DHT22;6876;50.788;4.940;2023-09-30T04:59:36;11.80;99.90
13610;DHT22;6876;50.788;4.940;2023-09-30T05:02:27;11.80;99.90
13610;DHT22;6876;50.788;4.940;2023-09-30T05:05:14;11.80;99.90
13610;DHT22;6876;50.788;4.940;2023-09-30T05:08:02;11.80;99.90
13610;DHT22;6876;50.788;4.940;2023-09-30T05:10:50;11.70;99.90
13610;DHT22;6876;50.788;4.940;2023-09-30T05:13:41;11.70;99.90
13610;DHT22;6876;50.788;4.940;2023-09-30T05:16:28;11.70;99.90
13610;DHT22;6876;50.788;4.940;2023-09-30T05:19:17;11.70;99.90
13610;DHT22;6876;50.788;4.940;2023-09-30T05:22:04;11.60;99.90
13610;DHT22;6876;50.788;4.940;2023-09-30T05:24:51;11.60;99.90
13610;DHT22;6876;50.788;4.940;2023-09-30T05:27:39;11.60;99.90
13610;DHT22;6876;50.788;4.940;2023-09-30T05:30:26;11.50;99.90
13610;DHT22;6876;50.788;4.940;2023-09-30T05:33:13;11.40;99.90
13610;DHT22;6876;50.788;4.940;2023-09-30T05:36:02;11.40;99.90
13610;DHT22;6876;50.788;4.940;2023-09-30T05:38:49;11.40;99.90
13610;DHT22;6876;50.788;4.940;2023-09-30T05:41:37;11.40;99.90
13610;DHT22;6876;50.788;4.940;2023-09-30T05:44:25;11.40;99.90
13610;DHT22;6876;50.788;4.940;2023-09-30T05:47:13;11.40;99.90
13610;DHT22;6876;50.788;4.940;2023-09-30T05:50:02;11.40;99.90
13610;DHT22;6876;50.788;4.940;2023-09-30T05:52:55;11.50;99.90
13610;DHT22;6876;50.788;4.940;2023-09-30T05:55:42;11.50;99.90
13610;DHT22;6876;50.788;4.940;2023-09-30T05:58:31;11.50;99.90
13610;DHT22;6876;50.788;4.940;2023-09-30T06:01:18;11.50;99.90
13610;DHT22;6876;50.788;4.940;2023-09-30T06:04:06;11.60;99.90
13610;DHT22;6876;50.788;4.940;2023-09-30T06:06:53;11.70;99.90
13610;DHT22;6876;50.788;4.940;2023-09-30T06:09:43;11.80;99.90
13610;DHT22;6876;50.788;4.940;2023-09-30T06:12:30;11.80;99.90
13610;DHT22;6876;50.788;4.940;2023-09-30T06:15:17;11.80;99.90
13610;DHT22;6876;50.788;4.940;2023-09-30T06:18:08;11.80;99.90
13610;DHT22;6876;50.788;4.940;2023-09-30T06:20:58;11.80;99.90
13610;DHT22;6876;50.788;4.940;2023-09-30T06:23:45;11.90;99.90
13610;DHT22;6876;50.788;4.940;2023-09-30T06:26:34;11.90;99.90
13610;DHT22;6876;50.788;4.940;2023-09-30T06:29:21;12.00;99.90
13610;DHT22;6876;50.788;4.940;2023-09-30T06:32:09;12.00;99.90
13610;DHT22;6876;50.788;4.940;2023-09-30T06:34:56;12.20;99.90
13610;DHT22;6876;50.788;4.940;2023-09-30T06:37:44;12.30;99.90
13610;DHT22;6876;50.788;4.940;2023-09-30T06:40:31;12.70;99.90
13610;DHT22;6876;50.788;4.940;2023-09-30T06:43:21;13.40;99.90
13610;DHT22;6876;50.788;4.940;2023-09-30T06:46:09;13.80;99.90
13610;DHT22;6876;50.788;4.940;2023-09-30T06:48:59;14.40;99.90
13610;DHT22;6876;50.788;4.940;2023-09-30T06:51:46;14.90;99.90
13610;DHT22;6876;50.788;4.940;2023-09-30T06:54:33;15.40;99.90
13610;DHT22;6876;50.788;4.940;2023-09-30T06:57:21;16.00;99.90
13610;DHT22;6876;50.788;4.940;2023-09-30T07:00:11;16.60;99.90
13610;DHT22;6876;50.788;4.940;2023-09-30T07:02:59;17.20;99.90
13610;DHT22;6876;50.788;4.940;2023-09-30T07:05:46;17.70;1.00
13610;DHT22;6876;50.788;4.940;2023-09-30T07:08:35;18.10;1.00
13610;DHT22;6876;50.788;4.940;2023-09-30T07:11:27;18.40;1.00
13610;DHT22;6876;50.788;4.940;2023-09-30T07:14:15;18.60;1.00
13610;DHT22;6876;50.788;4.940;2023-09-30T07:17:05;18.70;99.90
13610;DHT22;6876;50.788;4.940;2023-09-30T07:19:52;18.70;99.90
13610;DHT22;6876;50.788;4.940;2023-09-30T07:22:40;18.30;99.90
13610;DHT22;6876;50.788;4.940;2023-09-30T07:25:27;17.50;1.00
13610;DHT22;6876;50.788;4.940;2023-09-30T07:28:17;17.10;99.90
13610;DHT22;6876;50.788;4.940;2023-09-30T07:31:04;17.60;99.90
13610;DHT22;6876;50.788;4.940;2023-09-30T07:33:53;17.60;1.00
13610;DHT22;6876;50.788;4.940;2023-09-30T07:36:41;17.60;99.90
13610;DHT22;6876;50.788;4.940;2023-09-30T07:39:29;17.90;1.00
13610;DHT22;6876;50.788;4.940;2023-09-30T07:42:16;17.40;7.90
13610;DHT22;6876;50.788;4.940;2023-09-30T07:45:05;17.50;99.90
13610;DHT22;6876;50.788;4.940;2023-09-30T07:47:52;17.60;98.20
13610;DHT22;6876;50.788;4.940;2023-09-30T07:50:41;17.10;99.90
13610;DHT22;6876;50.788;4.940;2023-09-30T07:53:29;16.40;1.00
13610;DHT22;6876;50.788;4.940;2023-09-30T07:56:16;16.20;1.00
13610;DHT22;6876;50.788;4.940;2023-09-30T07:59:04;15.70;1.00
13610;DHT22;6876;50.788;4.940;2023-09-30T08:01:52;15.60;18.40
13610;DHT22;6876;50.788;4.940;2023-09-30T08:04:39;15.50;99.90
13610;DHT22;6876;50.788;4.940;2023-09-30T08:07:29;15.50;99.90
13610;DHT22;6876;50.788;4.940;2023-09-30T08:10:17;15.40;99.90
13610;DHT22;6876;50.788;4.940;2023-09-30T08:13:04;15.10;99.90
13610;DHT22;6876;50.788;4.940;2023-09-30T08:15:54;14.90;99.90
13610;DHT22;6876;50.788;4.940;2023-09-30T08:18:41;15.00;99.90
13610;DHT22;6876;50.788;4.940;2023-09-30T08:21:29;15.20;99.90
13610;DHT22;6876;50.788;4.940;2023-09-30T08:24:17;15.20;99.90
13610;DHT22;6876;50.788;4.940;2023-09-30T08:27:05;15.30;99.90
13610;DHT22;6876;50.788;4.940;2023-09-30T08:29:52;15.30;99.90
13610;DHT22;6876;50.788;4.940;2023-09-30T08:32:39;15.50;99.90
13610;DHT22;6876;50.788;4.940;2023-09-30T08:35:27;15.60;99.90
13610;DHT22;6876;50.788;4.940;2023-09-30T08:38:14;15.50;99.90
13610;DHT22;6876;50.788;4.940;2023-09-30T08:41:03;15.50;99.90
13610;DHT22;6876;50.788;4.940;2023-09-30T08:43:53;15.50;99.90
13610;DHT22;6876;50.788;4.940;2023-09-30T08:46:44;15.50;99.90
13610;DHT22;6876;50.788;4.940;2023-09-30T08:49:34;15.60;99.90
13610;DHT22;6876;50.788;4.940;2023-09-30T08:52:22;15.90;99.90
13610;DHT22;6876;50.788;4.940;2023-09-30T08:55:11;16.10;99.90
13610;DHT22;6876;50.788;4.940;2023-09-30T08:57:59;16.10;90.50
13610;DHT22;6876;50.788;4.940;2023-09-30T09:00:47;15.80;99.90
13610;DHT22;6876;50.788;4.940;2023-09-30T09:03:37;15.90;99.90
13610;DHT22;6876;50.788;4.940;2023-09-30T09:06:28;16.50;50.10
13610;DHT22;6876;50.788;4.940;2023-09-30T09:09:16;16.60;1.00
13610;DHT22;6876;50.788;4.940;2023-09-30T09:12:05;16.70;1.00
13610;DHT22;6876;50.788;4.940;2023-09-30T09:14:54;16.60;1.00
13610;DHT22;6876;50.788;4.940;2023-09-30T09:17:43;16.70;1.00
13610;DHT22;6876;50.788;4.940;2023-09-30T09:20:30;17.30;1.00
13610;DHT22;6876;50.788;4.940;2023-09-30T09:23:18;17.40;1.00
13610;DHT22;6876;50.788;4.940;2023-09-30T09:26:06;17.70;1.00
13610;DHT22;6876;50.788;4.940;2023-09-30T09:28:56;17.80;99.90
13610;DHT22;6876;50.788;4.940;2023-09-30T09:31:46;17.80;99.90
13610;DHT22;6876;50.788;4.940;2023-09-30T09:34:33;17.60;99.90
13610;DHT22;6876;50.788;4.940;2023-09-30T09:37:20;17.60;1.00
13610;DHT22;6876;50.788;4.940;2023-09-30T09:40:08;18.50;99.90
13610;DHT22;6876;50.788;4.940;2023-09-30T09:43:00;18.30;99.90
13610;DHT22;6876;50.788;4.940;2023-09-30T09:45:50;18.00;99.90
13610;DHT22;6876;50.788;4.940;2023-09-30T09:48:39;18.00;99.90
13610;DHT22;6876;50.788;4.940;2023-09-30T09:51:28;21.00;1.00
13610;DHT22;6876;50.788;4.940;2023-09-30T09:54:16;22.50;99.90
13610;DHT22;6876;50.788;4.940;2023-09-30T09:57:05;22.10;99.90
13610;DHT22;6876;50.788;4.940;2023-09-30T09:59:56;22.00;99.90
13610;DHT22;6876;50.788;4.940;2023-09-30T10:02:45;23.00;99.90
13610;DHT22;6876;50.788;4.940;2023-09-30T10:05:34;24.60;50.10
13610;DHT22;6876;50.788;4.940;2023-09-30T10:08:27;24.20;1.00
13610;DHT22;6876;50.788;4.940;2023-09-30T10:11:17;22.00;99.90
13610;DHT22;6876;50.788;4.940;2023-09-30T10:14:05;21.20;99.90
13610;DHT22;6876;50.788;4.940;2023-09-30T10:16:58;22.30;99.90
13610;DHT22;6876;50.788;4.940;2023-09-30T10:20:03;23.10;1.00
13610;DHT22;6876;50.788;4.940;2023-09-30T10:23:21;22.30;99.90
13610;DHT22;6876;50.788;4.940;2023-09-30T10:26:15;21.00;99.90
13610;DHT22;6876;50.788;4.940;2023-09-30T10:29:09;21.20;1.00
13610;DHT22;6876;50.788;4.940;2023-09-30T10:31:57;21.30;1.00
13610;DHT22;6876;50.788;4.940;2023-09-30T10:34:47;21.30;1.00
13610;DHT22;6876;50.788;4.940;2023-09-30T10:37:35;21.70;1.00
13610;DHT22;6876;50.788;4.940;2023-09-30T10:40:27;22.10;1.00
13610;DHT22;6876;50.788;4.940;2023-09-30T10:43:29;22.10;1.00
13610;DHT22;6876;50.788;4.940;2023-09-30T10:46:30;21.60;1.00
13610;DHT22;6876;50.788;4.940;2023-09-30T10:49:31;20.80;89.20
13610;DHT22;6876;50.788;4.940;2023-09-30T10:52:21;20.50;1.00
13610;DHT22;6876;50.788;4.940;2023-09-30T10:55:11;20.80;1.00
13610;DHT22;6876;50.788;4.940;2023-09-30T10:58:01;20.90;99.90
13610;DHT22;6876;50.788;4.940;2023-09-30T11:00:53;21.10;5.30
13610;DHT22;6876;50.788;4.940;2023-09-30T11:03:40;21.20;1.00
13610;DHT22;6876;50.788;4.940;2023-09-30T11:06:28;21.10;1.00
13610;DHT22;6876;50.788;4.940;2023-09-30T11:09:16;21.30;1.00
13610;DHT22;6876;50.788;4.940;2023-09-30T11:12:13;21.40;1.00
13610;DHT22;6876;50.788;4.940;2023-09-30T11:15:03;21.30;1.00
13610;DHT22;6876;50.788;4.940;2023-09-30T11:17:52;21.50;1.00
13610;DHT22;6876;50.788;4.940;2023-09-30T11:20:40;21.30;1.00
13610;DHT22;6876;50.788;4.940;2023-09-30T11:23:28;21.20;1.00
13610;DHT22;6876;50.788;4.940;2023-09-30T11:26:15;21.40;1.00
13610;DHT22;6876;50.788;4.940;2023-09-30T11:29:07;21.60;1.00
13610;DHT22;6876;50.788;4.940;2023-09-30T11:31:56;21.60;99.90
13610;DHT22;6876;50.788;4.940;2023-09-30T11:34:44;21.60;99.90
13610;DHT22;6876;50.788;4.940;2023-09-30T11:37:32;21.60;99.90
13610;DHT22;6876;50.788;4.940;2023-09-30T11:40:19;21.60;1.00
13610;DHT22;6876;50.788;4.940;2023-09-30T11:43:09;21.30;99.90
13610;DHT22;6876;50.788;4.940;2023-09-30T11:46:04;21.40;1.00
13610;DHT22;6876;50.788;4.940;2023-09-30T11:49:00;21.20;1.00
13610;DHT22;6876;50.788;4.940;2023-09-30T11:51:48;21.20;1.00
13610;DHT22;6876;50.788;4.940;2023-09-30T11:54:37;21.20;1.00
13610;DHT22;6876;50.788;4.940;2023-09-30T11:57:25;20.90;1.00
13610;DHT22;6876;50.788;4.940;2023-09-30T12:00:13;20.80;1.00
13610;DHT22;6876;50.788;4.940;2023-09-30T12:03:00;20.70;99.90
13610;DHT22;6876;50.788;4.940;2023-09-30T12:05:50;20.80;1.00
13610;DHT22;6876;50.788;4.940;2023-09-30T12:08:38;21.10;1.00
13610;DHT22;6876;50.788;4.940;2023-09-30T12:11:25;21.30;99.90
13610;DHT22;6876;50.788;4.940;2023-09-30T12:14:15;21.30;1.00
13610;DHT22;6876;50.788;4.940;2023-09-30T12:17:02;21.00;99.90
13610;DHT22;6876;50.788;4.940;2023-09-30T12:19:50;20.70;1.00
13610;DHT22;6876;50.788;4.940;2023-09-30T12:22:39;20.50;1.00
13610;DHT22;6876;50.788;4.940;2023-09-30T12:25:26;20.40;1.00
13610;DHT22;6876;50.788;4.940;2023-09-30T12:28:14;20.30;1.00
13610;DHT22;6876;50.788;4.940;2023-09-30T12:31:01;20.20;1.00
13610;DHT22;6876;50.788;4.940;2023-09-30T12:33:50;20.00;1.00
13610;DHT22;6876;50.788;4.940;2023-09-30T12:36:38;20.10;1.00
13610;DHT22;6876;50.788;4.940;2023-09-30T12:39:27;20.20;1.00
13610;DHT22;6876;50.788;4.940;2023-09-30T12:42:19;20.50;1.00
13610;DHT22;6876;50.788;4.940;2023-09-30T12:45:07;20.70;1.00
13610;DHT22;6876;50.788;4.940;2023-09-30T12:47:54;20.70;1.00
13610;DHT22;6876;50.788;4.940;2023-09-30T12:50:42;21.10;99.90
13610;DHT22;6876;50.788;4.940;2023-09-30T12:53:29;21.30;99.90
13610;DHT22;6876;50.788;4.940;2023-09-30T12:56:19;21.60;99.90
13610;DHT22;6876;50.788;4.940;2023-09-30T12:59:07;21.60;1.00
13610;DHT22;6876;50.788;4.940;2023-09-30T13:01:55;21.30;1.00
13610;DHT22;6876;50.788;4.940;2023-09-30T13:04:42;21.30;99.90
13610;DHT22;6876;50.788;4.940;2023-09-30T13:07:30;21.30;1.00
13610;DHT22;6876;50.788;4.940;2023-09-30T13:10:18;21.40;99.90
13610;DHT22;6876;50.788;4.940;2023-09-30T13:13:07;21.20;99.90
13610;DHT22;6876;50.788;4.940;2023-09-30T13:15:54;21.30;1.00
13610;DHT22;6876;50.788;4.940;2023-09-30T13:18:42;21.30;1.00
13610;DHT22;6876;50.788;4.940;2023-09-30T13:21:29;21.20;1.00
13610;DHT22;6876;50.788;4.940;2023-09-30T13:24:17;21.20;99.90
13610;DHT22;6876;50.788;4.940;2023-09-30T13:27:04;21.20;1.00
13610;DHT22;6876;50.788;4.940;2023-09-30T13:29:53;21.20;1.00
13610;DHT22;6876;50.788;4.940;2023-09-30T13:32:42;21.00;99.90
13610;DHT22;6876;50.788;4.940;2023-09-30T13:35:30;21.00;99.90
13610;DHT22;6876;50.788;4.940;2023-09-30T13:38:17;21.10;99.90
13610;DHT22;6876;50.788;4.940;2023-09-30T13:41:05;21.40;99.90
13610;DHT22;6876;50.788;4.940;2023-09-30T13:43:52;21.30;99.90
13610;DHT22;6876;50.788;4.940;2023-09-30T13:46:42;21.10;65.50
13610;DHT22;6876;50.788;4.940;2023-09-30T13:49:29;20.90;1.00
13610;DHT22;6876;50.788;4.940;2023-09-30T13:52:17;21.20;31.80
13610;DHT22;6876;50.788;4.940;2023-09-30T13:55:05;21.20;1.00
13610;DHT22;6876;50.788;4.940;2023-09-30T13:57:52;21.20;27.70
13610;DHT22;6876;50.788;4.940;2023-09-30T14:00:39;20.90;99.90
13610;DHT22;6876;50.788;4.940;2023-09-30T14:03:34;20.80;2.10
13610;DHT22;6876;50.788;4.940;2023-09-30T14:06:22;20.70;1.00
13610;DHT22;6876;50.788;4.940;2023-09-30T14:09:09;20.80;1.00
13610;DHT22;6876;50.788;4.940;2023-09-30T14:12:00;20.80;1.00
13610;DHT22;6876;50.788;4.940;2023-09-30T14:14:50;20.90;1.00
13610;DHT22;6876;50.788;4.940;2023-09-30T14:17:37;20.90;1.00
13610;DHT22;6876;50.788;4.940;2023-09-30T14:20:26;21.00;1.00
13610;DHT22;6876;50.788;4.940;2023-09-30T14:23:13;21.00;1.00
13610;DHT22;6876;50.788;4.940;2023-09-30T14:26:01;21.10;1.00
13610;DHT22;6876;50.788;4.940;2023-09-30T14:28:52;21.10;1.00
13610;DHT22;6876;50.788;4.940;2023-09-30T14:31:40;21.10;1.00
13610;DHT22;6876;50.788;4.940;2023-09-30T14:34:27;21.20;1.00
13610;DHT22;6876;50.788;4.940;2023-09-30T14:37:16;21.30;1.00
13610;DHT22;6876;50.788;4.940;2023-09-30T14:40:04;21.30;99.90
13610;DHT22;6876;50.788;4.940;2023-09-30T14:42:56;21.20;99.90
13610;DHT22;6876;50.788;4.940;2023-09-30T14:45:43;21.10;99.90
13610;DHT22;6876;50.788;4.940;2023-09-30T14:48:31;21.10;99.90
13610;DHT22;6876;50.788;4.940;2023-09-30T14:51:18;21.00;99.90
13610;DHT22;6876;50.788;4.940;2023-09-30T14:54:10;21.00;99.90
13610;DHT22;6876;50.788;4.940;2023-09-30T14:56:58;20.90;99.90
13610;DHT22;6876;50.788;4.940;2023-09-30T14:59:45;20.70;99.90
13610;DHT22;6876;50.788;4.940;2023-09-30T15:02:32;20.80;99.90
13610;DHT22;6876;50.788;4.940;2023-09-30T15:05:20;20.70;99.90
13610;DHT22;6876;50.788;4.940;2023-09-30T15:08:07;20.60;99.90
13610;DHT22;6876;50.788;4.940;2023-09-30T15:10:57;20.60;99.90
13610;DHT22;6876;50.788;4.940;2023-09-30T15:13:45;20.60;99.90
13610;DHT22;6876;50.788;4.940;2023-09-30T15:16:32;20.40;99.90
13610;DHT22;6876;50.788;4.940;2023-09-30T15:19:20;20.30;99.90
13610;DHT22;6876;50.788;4.940;2023-09-30T15:22:08;20.30;99.90
13610;DHT22;6876;50.788;4.940;2023-09-30T15:24:55;20.30;99.90
13610;DHT22;6876;50.788;4.940;2023-09-30T15:27:44;20.30;99.90
13610;DHT22;6876;50.788;4.940;2023-09-30T15:30:31;20.30;99.90
13610;DHT22;6876;50.788;4.940;2023-09-30T15:33:18;20.20;99.90
13610;DHT22;6876;50.788;4.940;2023-09-30T15:36:09;20.10;99.90
13610;DHT22;6876;50.788;4.940;2023-09-30T15:38:57;20.10;99.90
13610;DHT22;6876;50.788;4.940;2023-09-30T15:41:45;20.00;99.90
13610;DHT22;6876;50.788;4.940;2023-09-30T15:44:33;19.90;99.90
13610;DHT22;6876;50.788;4.940;2023-09-30T15:47:21;19.90;99.90
13610;DHT22;6876;50.788;4.940;2023-09-30T15:50:09;19.90;99.90
13610;DHT22;6876;50.788;4.940;2023-09-30T15:52:56;19.90;99.90
13610;DHT22;6876;50.788;4.940;2023-09-30T15:55:44;19.80;99.90
13610;DHT22;6876;50.788;4.940;2023-09-30T15:58:31;19.70;99.90
13610;DHT22;6876;50.788;4.940;2023-09-30T16:01:20;19.50;99.90
13610;DHT22;6876;50.788;4.940;2023-09-30T16:04:07;19.50;99.90
13610;DHT22;6876;50.788;4.940;2023-09-30T16:06:55;19.50;99.90
13610;DHT22;6876;50.788;4.940;2023-09-30T16:09:42;19.40;99.90
13610;DHT22;6876;50.788;4.940;2023-09-30T16:12:29;19.40;99.90
13610;DHT22;6876;50.788;4.940;2023-09-30T16:15:16;19.40;99.90
13610;DHT22;6876;50.788;4.940;2023-09-30T16:18:05;19.30;99.90
13610;DHT22;6876;50.788;4.940;2023-09-30T16:20:53;19.30;99.90
13610;DHT22;6876;50.788;4.940;2023-09-30T16:23:40;19.20;99.90
13610;DHT22;6876;50.788;4.940;2023-09-30T16:26:27;19.20;99.90
13610;DHT22;6876;50.788;4.940;2023-09-30T16:29:15;19.30;99.90
13610;DHT22;6876;50.788;4.940;2023-09-30T16:32:02;19.20;99.90
13610;DHT22;6876;50.788;4.940;2023-09-30T16:34:51;19.00;1.00
13610;DHT22;6876;50.788;4.940;2023-09-30T16:37:38;18.80;99.90
13610;DHT22;6876;50.788;4.940;2023-09-30T16:40:26;18.80;1.00
13610;DHT22;6876;50.788;4.940;2023-09-30T16:43:13;18.80;99.90
13610;DHT22;6876;50.788;4.940;2023-09-30T16:46:01;18.80;99.90
13610;DHT22;6876;50.788;4.940;2023-09-30T16:48:48;18.80;99.90
13610;DHT22;6876;50.788;4.940;2023-09-30T16:51:37;18.80;99.90
13610;DHT22;6876;50.788;4.940;2023-09-30T16:54:25;18.50;2.40
13610;DHT22;6876;50.788;4.940;2023-09-30T16:57:13;18.20;1.00
13610;DHT22;6876;50.788;4.940;2023-09-30T17:00:00;18.00;1.00
13610;DHT22;6876;50.788;4.940;2023-09-30T17:02:49;17.90;99.90
13610;DHT22;6876;50.788;4.940;2023-09-30T17:05:36;17.70;99.90
13610;DHT22;6876;50.788;4.940;2023-09-30T17:08:25;17.60;1.00
13610;DHT22;6876;50.788;4.940;2023-09-30T17:11:17;17.50;1.00
13610;DHT22;6876;50.788;4.940;2023-09-30T17:14:04;17.40;1.00
13610;DHT22;6876;50.788;4.940;2023-09-30T17:16:53;17.20;99.90
13610;DHT22;6876;50.788;4.940;2023-09-30T17:19:40;17.10;1.00
13610;DHT22;6876;50.788;4.940;2023-09-30T17:22:28;17.00;99.90
13610;DHT22;6876;50.788;4.940;2023-09-30T17:25:16;16.80;99.90
13610;DHT22;6876;50.788;4.940;2023-09-30T17:28:05;16.80;1.00
13610;DHT22;6876;50.788;4.940;2023-09-30T17:30:53;16.60;99.90
13610;DHT22;6876;50.788;4.940;2023-09-30T17:33:40;16.40;99.90
13610;DHT22;6876;50.788;4.940;2023-09-30T17:36:27;16.30;1.00
13610;DHT22;6876;50.788;4.940;2023-09-30T17:39:15;16.30;1.00
13610;DHT22;6876;50.788;4.940;2023-09-30T17:42:04;16.20;99.90
13610;DHT22;6876;50.788;4.940;2023-09-30T17:44:51;16.10;99.90
13610;DHT22;6876;50.788;4.940;2023-09-30T17:47:40;16.00;1.00
13610;DHT22;6876;50.788;4.940;2023-09-30T17:50:28;15.90;1.00
13610;DHT22;6876;50.788;4.940;2023-09-30T17:53:15;15.90;1.00
13610;DHT22;6876;50.788;4.940;2023-09-30T17:56:03;15.70;1.00
13610;DHT22;6876;50.788;4.940;2023-09-30T17:58:52;15.60;98.60
13610;DHT22;6876;50.788;4.940;2023-09-30T18:01:39;15.50;99.90
13610;DHT22;6876;50.788;4.940;2023-09-30T18:04:28;15.50;90.60
13610;DHT22;6876;50.788;4.940;2023-09-30T18:07:15;15.50;99.90